Portland, OR

2:53 PM PST on February 10, 2016 (GMT -0800)
Portland - West Hills | | Change Station
CLOSE
Current Station
Personal Weather Station
Location: Portland, OR
Elevation: 820 ft
Nearby Weather Stations

Elev 820 ft 45.49 °N, 122.69 °W | Updated 11 seconds ago

Overcast
Overcast
57.6 °F
Feels Like 57.6 °F
N
6.0
Wind Variable Wind from SSW
Gusts 9.0 mph

Today
High -- | Low -- °F
--% Chance of Precip.
Yesterday
High -- | Low -- °F
Precip. -- in
Pressure 30.28 in
Visibility 10.0 miles
Clouds Mostly Cloudy 6500 ft
Mostly Cloudy 8000 ft
Mostly Cloudy 25000 ft
Dew Point 50 °F
Humidity 75%
Rainfall 0.00 in
Snow Depth Not available.
7:20 AM 5:30 PM
Waxing Crescent, 7% visible
METAR KPDX 102153Z 08006KT 10SM -RA BKN065 BKN080 BKN250 13/06 A3028 RMK AO2 RAB47 SLP252 P0000 T01280061
Pressure 30.28 in
Visibility 10.0 miles
Clouds Mostly Cloudy 6500 ft
Mostly Cloudy 8000 ft
Mostly Cloudy 25000 ft
Dew Point 50 °F
Humidity 75%
Rainfall 0.00 in
Snow Depth Not available.
7:20 AM 5:30 PM
Waxing Crescent, 7% visible
METAR KPDX 102153Z 08006KT 10SM -RA BKN065 BKN080 BKN250 13/06 A3028 RMK AO2 RAB47 SLP252 P0000 T01280061

10-Day Weather Forecast

Almanac

Astronomy

Feb. 10, 2016 Rise Set
Actual Time
Civil Twilight
Nautical Twilight
Astronomical Twilight
Moon
Length of Visible Light
Length of Day
Tomorrow will be .
, % of the Moon is Illuminated

Today's Extremes

State Highs State Lows

Community

WunderPhotos

Upload Photos

1,891,940 photos uploaded!

WunderBlog® & News

Nearby

Air Quality

  Air Quality AQ Index Pollutant
Not available.

Snow Depth

Station Depth Elevation

Earthquake Activity

City Distance Mag. Time & Date
Minimum magnitude displayed is 2.5.

Coastal Water Temperatures

Place Temperature

Stations

Nearby Weather Stations

Station Location Temp. Windchill Dew Point Humidity Wind Precip. Elev Updated Type
                   

Watches & Warnings

There are currently no watches in effect.